Terminal Aerodrome Forecast
Issued by NWS

Current Version | Previous Version | Text Only | Print | Product List | Glossary On
Versions: 1 2 3 4 5 6 7 8 9 10 11 12 13 14
000
FTUS43 KLSX 311700
TAFUIN
TAF
KUIN 311724Z 3118/0118 24004KT P6SM SCT050
     FM011000 VRB02KT 5SM BR SCT250
     FM011300 14005KT P6SM SCT250=

USA.gov is the U.S. government's official web portal to all federal, state and local government web resources and services.